x

Tanner Bank - 121nm West Of San Diego, Ca (46047) Wave Buoy

8:50am - Thu 11th Feb 2016 All times are PST. -8 hours from GMT.

  • Sig Wave height 5.2ft
  • Swell Direction
  • Peak Period 13s
  • Average Period 9s
  • Wind
    9mph
  • Sea Temp 60°f
  • 空気 Temp 60°f
  • Sea Pressure 1019.7mb
  • Tanner Bank - 121nm West Of San Diego, Ca
  • Tanner Bank - 121nm West Of San Diego, Ca

More Historic Weather Station data

Upgrade to MSW Pro to gain access to the past 30 days of data for over 8000 Wavebouys and Weather Stations around the globe.

Join Pro

Comparision Forecast

View Surf forecast
   
Thu 02/11 8:50am 5ft 13s 9s 9
mph
1019.7mb 60f 60f
7:50am 5ft 13s 9s 7 9 mph 1019.2mb 59f 59f
6:50am 5ft 13s 9s 11
mph
1018.9mb 59f 59f
5:50am 4.5ft 12s 8s 11 13 mph 1018.5mb 59f 59f
4:50am 5ft 14s 9s 4
mph
1018mb 59f 59f
3:50am 5ft 14s 8s 7
mph
1017.8mb 59f 59f
2:50am 4.5ft 13s 8s 9 11 mph 1018.2mb 59f 59f
1:50am 4.5ft 12s 9s 11 13 mph 1018.4mb 60f 59f
12:50am 4.5ft 12s 8s 9
mph
1018.7mb 60f 60f
Wed 02/10 11:50pm 4.5ft 12s 8s 7 9 mph 1018.8mb 60f 60f
10:50pm 4.5ft 13s 8s 7 9 mph 1019mb 60f 60f
9:50pm 4.5ft 12s 8s 7
mph
1019.1mb 60f 60f
8:50pm 4.5ft 14s 8s 9
mph
1018.9mb 60f 60f
7:50pm 5ft 13s 8s 9 11 mph 1018.9mb 60f 60f
6:50pm 5.5ft 13s 8s 9 11 mph 1019.1mb 60f 60f
5:50pm 4.5ft 13s 7s 11 13 mph 1019mb 60f 60f
4:50pm 5ft 14s 8s 11 16 mph 1018.6mb 60f 61f
3:50pm 5ft 13s 8s 13 18 mph 1018.8mb 60f 61f
2:50pm 5ft 13s 9s 13 16 mph 1018.8mb 60f 61f
1:50pm 4.5ft 14s 8s 9 13 mph 1019.2mb 61f 61f
12:50pm 4.5ft 13s 8s 4 7 mph 1019.6mb 60f 61f
11:50am 5.5ft 14s 9s 7
mph
1020.6mb 59f 61f
10:50am 5ft 13s 8s 9
mph
1021.2mb 59f 61f
9:50am 5.5ft 14s 9s 11 13 mph 1021.3mb 59f 61f
8:50am 4.5ft 14s 9s 11 13 mph 1021mb 59f 61f
7:50am 5ft 14s 9s 9 11 mph 1020.3mb 59f 60f
6:50am 5ft 14s 9s 7
mph
1020mb 59f 60f
5:50am 4.5ft 14s 9s 2 4 mph 1019.4mb 59f 61f
4:50am 4.5ft 14s 9s 7
mph
1019.2mb 59f 61f
3:50am 4.5ft 14s 9s 7
mph
1019.5mb 59f 61f
2:50am 4.5ft 15s 9s 7 9 mph 1019.8mb 59f 61f
1:50am 5ft 14s 9s 9 11 mph 1020mb 59f 60f
12:50am 5ft 15s 9s 9 11 mph 1020.1mb 59f 60f
Tue 02/09 11:50pm 5ft 14s 10s 11 13 mph 1020.2mb 59f 61f
10:50pm 5ft 15s 12s 11
mph
1020mb 60f 61f
9:50pm 5ft 14s 12s 13 16 mph 1019.7mb 60f 62f
8:50pm 5ft 15s 13s 9
mph
1019.3mb 60f 62f
7:50pm 5ft 15s 13s 11
mph
1019.1mb 60f 62f
6:50pm 5ft 14s 12s 9 11 mph 1019mb 60f 62f
5:50pm 5ft 15s 12s 7 9 mph 1018.6mb 60f 63f
4:50pm 6.5ft 15s 13s 4 7 mph 1018.6mb 61f 65f
3:50pm 6ft 15s 13s 7 9 mph 1018.9mb 64f 65f
2:50pm 5ft 15s 12s 2
mph
1018.6mb 62f 65f
1:50pm 6ft 15s 13s 2
mph
1018.7mb 62f 65f
12:50pm 5ft 15s 12s 2 4 mph 1019mb 60f 65f
11:50am 6ft 15s 13s 4
mph
1019.8mb 61f 63f
10:50am 5ft 15s 12s 7
mph
1020.4mb 60f 62f
9:50am 5ft 16s 13s 4
mph
1020.6mb 60f 62f
8:50am 6ft 16s 13s 2 4 mph 1020.6mb 60f 61f
7:50am 5ft 16s 12s 4 7 mph 1019.9mb 60f 60f
6:50am 6ft 16s 13s 7 9 mph 1019.9mb 59f 61f
5:50am 5ft 16s 13s 7 9 mph 1019.5mb 59f 61f
4:50am 4.5ft 16s 12s 7
mph
1019.2mb 60f 60f
3:50am 5ft 16s 12s 4 7 mph 1019mb 60f 60f
2:50am 4.5ft 16s 11s 7
mph
1019mb 60f 61f
1:50am 4.5ft 17s 11s 7 9 mph 1019.3mb 60f 61f
12:50am 4ft 17s 10s 9 11 mph 1019.5mb 60f 62f
Mon 02/08 11:50pm 5ft 17s 11s 7 9 mph 1019.8mb 60f 62f
10:50pm 4ft 17s 9s 7 9 mph 1019.9mb 60f 62f
9:50pm 4.5ft 17s 10s 7
mph
1020.1mb 60f 62f
8:50pm 5ft 17s 11s 9 11 mph 1019.7mb 60f 62f
7:50pm 3.5ft 11s 10s 4 7 mph 1019.2mb 60f 63f
6:50pm 4.5ft 12s 11s 4
mph
1018.5mb 60f 63f
5:50pm 4.5ft 11s 10s 4
mph
1018.4mb 61f 63f
4:50pm 3.5ft 13s 10s 7
mph
1018.1mb 62f 64f
3:50pm 4.5ft 12s 10s 4 7 mph 1018.2mb 63f 65f
2:50pm 4.5ft 13s 10s 7
mph
1018.2mb 63f 65f
1:50pm 4ft 14s 10s 4 7 mph 1018.4mb 62f 65f
12:50pm 4ft 13s 10s 4
mph
1019mb 62f 67f
11:50am 4ft 13s 9s 2
mph
1019.7mb 62f 67f
10:50am 4.5ft 13s 10s 4
mph
1020.5mb 60f 65f
9:50am 4ft 13s 9s  -  2 mph 1020.7mb 60f 65f
8:50am 4ft 13s 9s 4 7 mph 1020.1mb 59f 63f
7:50am 4.5ft 13s 10s 4 7 mph 1019.2mb 59f 62f
6:50am 4.5ft 11s 10s 4 7 mph 1018.6mb 59f 61f
5:50am 4.5ft 12s 10s 7
mph
1018.2mb 59f 62f
4:50am 5ft 13s 10s 7 9 mph 1017.8mb 59f 61f
3:50am 4.5ft 11s 9s 7 9 mph 1017.8mb 60f 62f
2:50am 4.5ft 12s 9s 4 7 mph 1018mb 59f 62f
1:50am 4.5ft 12s 9s 7 9 mph 1018.3mb 59f 62f
12:50am 5ft 13s 10s 4 7 mph 1018.9mb 59f 61f
Sun 02/07 11:50pm 6ft 12s 10s 4 7 mph 1019.5mb 59f 61f
10:50pm 5ft 12s 9s 7 9 mph 1019.9mb 59f 61f
9:50pm 5ft 12s 10s 9 11 mph 1019.7mb 60f 62f
8:50pm 5ft 13s 10s 4
mph
1019.1mb 60f 62f
7:50pm 5.5ft 12s 10s 4
mph
1018.9mb 60f 61f
6:50pm 5ft 12s 10s 7 9 mph 1018.8mb 60f 62f